createdAt,value
2023-05-19T00:01:20.343Z,19.50
2023-05-19T00:03:57.477Z,19.50
2023-05-19T00:06:26.822Z,19.50
2023-05-19T00:08:57.785Z,19.50
2023-05-19T00:11:26.906Z,19.50
2023-05-19T00:13:59.239Z,19.40
2023-05-19T00:16:28.545Z,19.40
2023-05-19T00:18:57.151Z,19.40
2023-05-19T00:21:24.270Z,19.40
2023-05-19T00:23:51.406Z,19.40
2023-05-19T00:26:18.723Z,19.40
2023-05-19T00:28:55.449Z,19.30
2023-05-19T00:31:22.516Z,19.40
2023-05-19T00:33:49.596Z,19.30
2023-05-19T00:36:16.696Z,19.30
2023-05-19T00:38:43.812Z,19.20
2023-05-19T00:41:11.030Z,19.20
2023-05-19T00:43:38.017Z,19.20
2023-05-19T00:46:05.414Z,19.20
2023-05-19T00:48:32.385Z,19.20
2023-05-19T00:51:04.921Z,19.20
2023-05-19T00:53:35.479Z,19.20
2023-05-19T00:56:03.472Z,19.10
2023-05-19T00:58:32.608Z,19.10
2023-05-19T01:01:04.482Z,19.10
2023-05-19T01:03:35.616Z,19.10
2023-05-19T01:06:07.200Z,19.10
2023-05-19T01:08:36.290Z,19.00
2023-05-19T01:11:05.043Z,19.00
2023-05-19T01:13:33.083Z,18.90
2023-05-19T01:16:15.209Z,18.90
2023-05-19T01:19:14.068Z,18.90
2023-05-19T01:21:47.915Z,18.80
2023-05-19T01:24:50.059Z,18.70
2023-05-19T01:27:50.817Z,18.60
2023-05-19T01:30:41.774Z,18.60
2023-05-19T01:33:14.228Z,18.60
2023-05-19T01:35:43.530Z,18.50
2023-05-19T01:38:11.939Z,18.50
2023-05-19T01:40:42.270Z,18.50
2023-05-19T01:43:12.518Z,18.50
2023-05-19T01:45:40.534Z,18.50
2023-05-19T01:48:10.605Z,18.50
2023-05-19T01:50:40.181Z,18.50
2023-05-19T01:53:07.873Z,18.40
2023-05-19T01:55:48.140Z,18.40
2023-05-19T01:58:31.087Z,18.30
2023-05-19T02:01:11.658Z,18.20
2023-05-19T02:04:03.543Z,18.20
2023-05-19T02:06:57.330Z,18.10
2023-05-19T02:09:41.017Z,18.10
2023-05-19T02:12:11.902Z,18.10
2023-05-19T02:14:52.890Z,18.10
2023-05-19T02:17:20.882Z,18.00
2023-05-19T02:19:48.032Z,18.00
2023-05-19T02:22:15.311Z,17.90
2023-05-19T02:24:42.543Z,18.00
2023-05-19T02:27:09.577Z,18.00
2023-05-19T02:29:36.553Z,18.00
2023-05-19T02:32:03.682Z,18.00
2023-05-19T02:34:30.748Z,18.00
2023-05-19T02:36:57.779Z,17.90
2023-05-19T02:39:24.810Z,17.90
2023-05-19T02:41:51.746Z,17.90
2023-05-19T02:44:18.750Z,17.90
2023-05-19T02:46:46.167Z,18.00
2023-05-19T02:49:13.240Z,18.00
2023-05-19T02:51:40.361Z,18.00
2023-05-19T02:54:07.553Z,17.90
2023-05-19T02:56:34.548Z,17.90
2023-05-19T02:59:01.667Z,17.90
2023-05-19T03:01:28.774Z,17.90
2023-05-19T03:03:55.794Z,17.90
2023-05-19T03:06:23.501Z,17.90
2023-05-19T03:08:51.060Z,17.90
2023-05-19T03:11:18.218Z,18.00
2023-05-19T03:13:45.274Z,18.00
2023-05-19T03:16:12.654Z,18.00
2023-05-19T03:18:39.863Z,17.90
2023-05-19T03:21:06.865Z,17.90
2023-05-19T03:23:33.823Z,17.90
2023-05-19T03:26:01.261Z,17.90
2023-05-19T03:28:28.495Z,17.90
2023-05-19T03:30:55.527Z,18.00
2023-05-19T03:33:29.885Z,18.00
2023-05-19T03:35:57.984Z,18.00
2023-05-19T03:38:26.968Z,18.00
2023-05-19T03:40:57.904Z,18.00
2023-05-19T03:43:25.082Z,18.00
2023-05-19T03:45:58.244Z,18.00
2023-05-19T03:48:51.846Z,18.00
2023-05-19T03:51:37.342Z,18.00
2023-05-19T03:54:17.728Z,18.00
2023-05-19T03:56:44.767Z,18.00
2023-05-19T03:59:12.326Z,18.00
2023-05-19T04:01:39.317Z,18.00
2023-05-19T04:04:06.340Z,18.00
2023-05-19T04:06:33.990Z,18.00
2023-05-19T04:09:02.476Z,18.00
2023-05-19T04:11:29.466Z,18.00
2023-05-19T04:13:56.541Z,18.00
2023-05-19T04:16:23.711Z,18.00
2023-05-19T04:18:50.926Z,18.00
2023-05-19T04:21:17.900Z,18.00
2023-05-19T04:23:44.865Z,18.00
2023-05-19T04:26:12.329Z,18.00
2023-05-19T04:28:42.328Z,18.10
2023-05-19T04:31:11.063Z,18.10
2023-05-19T04:33:39.320Z,18.10
2023-05-19T04:36:11.492Z,18.10
2023-05-19T04:38:40.758Z,18.10
2023-05-19T04:41:10.230Z,18.10
2023-05-19T04:43:41.895Z,18.10
2023-05-19T04:46:13.218Z,18.10
2023-05-19T04:48:41.790Z,18.10
2023-05-19T04:51:08.869Z,18.10
2023-05-19T04:53:36.654Z,18.10
2023-05-19T04:56:06.433Z,18.10
2023-05-19T04:58:34.120Z,18.20
2023-05-19T05:01:01.156Z,18.20
2023-05-19T05:03:31.077Z,18.20
2023-05-19T05:05:58.723Z,18.20
2023-05-19T05:08:25.863Z,18.20
2023-05-19T05:10:54.069Z,18.20
2023-05-19T05:13:23.946Z,18.20
2023-05-19T05:15:52.285Z,18.20
2023-05-19T05:18:19.793Z,18.30
2023-05-19T05:20:48.213Z,18.20
2023-05-19T05:23:16.687Z,18.20
2023-05-19T05:25:47.429Z,18.30
2023-05-19T05:28:16.116Z,18.30
2023-05-19T05:30:44.989Z,18.30
2023-05-19T05:33:14.120Z,18.30
2023-05-19T05:35:42.064Z,18.30
2023-05-19T05:38:11.655Z,18.30
2023-05-19T05:40:39.049Z,18.30
2023-05-19T05:43:06.361Z,18.30
2023-05-19T05:45:37.820Z,18.30
2023-05-19T05:48:06.139Z,18.30
2023-05-19T05:50:34.415Z,18.30
2023-05-19T05:53:06.542Z,18.30
2023-05-19T05:55:35.474Z,18.40
2023-05-19T05:58:03.657Z,18.40
2023-05-19T06:00:31.101Z,18.40
2023-05-19T06:02:59.218Z,18.40
2023-05-19T06:05:26.837Z,18.40
2023-05-19T06:07:54.678Z,18.40
2023-05-19T06:10:25.518Z,18.50
2023-05-19T06:12:54.815Z,18.50
2023-05-19T06:15:23.480Z,18.50
2023-05-19T06:18:16.671Z,18.50
2023-05-19T06:20:43.862Z,18.50
2023-05-19T06:23:11.054Z,18.50
2023-05-19T06:25:38.098Z,18.50
2023-05-19T06:28:06.045Z,18.50
2023-05-19T06:30:33.427Z,18.60
2023-05-19T06:33:14.902Z,18.60
2023-05-19T06:35:42.857Z,18.60
2023-05-19T06:38:10.229Z,18.60
2023-05-19T06:40:37.296Z,18.60
2023-05-19T06:43:04.951Z,18.60
2023-05-19T06:45:52.943Z,18.70
2023-05-19T06:48:19.909Z,18.70
2023-05-19T06:50:47.924Z,18.70
2023-05-19T06:53:16.705Z,18.70
2023-05-19T06:55:54.743Z,18.80
2023-05-19T06:58:27.198Z,18.80
2023-05-19T07:00:54.565Z,18.80
2023-05-19T07:03:22.051Z,18.90
2023-05-19T07:05:49.378Z,18.90
2023-05-19T07:08:16.407Z,18.90
2023-05-19T07:10:43.735Z,18.90
2023-05-19T07:13:13.610Z,19.00
2023-05-19T07:15:41.477Z,19.00
2023-05-19T07:18:08.652Z,19.10
2023-05-19T07:20:36.270Z,19.10
2023-05-19T07:23:05.382Z,19.10
2023-05-19T07:25:33.306Z,19.10
2023-05-19T07:28:00.643Z,19.20
2023-05-19T07:30:28.552Z,19.20
2023-05-19T07:32:56.023Z,19.20
2023-05-19T07:35:23.171Z,19.20
2023-05-19T07:37:51.667Z,19.20
2023-05-19T07:40:19.096Z,19.20
2023-05-19T07:42:46.079Z,19.30
2023-05-19T07:45:13.068Z,19.30
2023-05-19T07:47:40.082Z,19.40
2023-05-19T07:50:07.663Z,19.40
2023-05-19T07:52:34.695Z,19.40
2023-05-19T07:55:01.714Z,19.50
2023-05-19T07:57:28.694Z,19.50
2023-05-19T07:59:55.727Z,19.50
2023-05-19T08:02:22.861Z,19.50
2023-05-19T08:04:49.983Z,19.60
2023-05-19T08:07:17.075Z,19.60
2023-05-19T08:09:44.112Z,19.70
2023-05-19T08:12:11.404Z,19.70
2023-05-19T08:14:38.528Z,19.70
2023-05-19T08:17:05.590Z,19.70
2023-05-19T08:19:32.591Z,19.70
2023-05-19T08:22:01.217Z,19.80
2023-05-19T08:24:32.793Z,19.70
2023-05-19T08:27:00.016Z,19.70
2023-05-19T08:29:26.966Z,19.80
2023-05-19T08:31:54.185Z,19.80
2023-05-19T08:34:22.283Z,19.80
2023-05-19T08:36:49.470Z,19.80
2023-05-19T08:39:18.250Z,19.80
2023-05-19T08:41:45.276Z,19.80
2023-05-19T08:44:12.331Z,19.90
2023-05-19T08:46:39.478Z,19.90
2023-05-19T08:49:14.516Z,19.90
2023-05-19T08:51:50.566Z,20.00
2023-05-19T08:54:20.750Z,20.10
2023-05-19T08:56:48.410Z,20.10
2023-05-19T08:59:15.922Z,20.20
2023-05-19T09:01:46.566Z,20.20
2023-05-19T09:04:14.300Z,20.30
2023-05-19T09:06:42.260Z,20.30
2023-05-19T09:09:09.380Z,20.40
2023-05-19T09:11:37.713Z,20.40
2023-05-19T09:14:05.753Z,20.50
2023-05-19T09:16:34.106Z,20.60
2023-05-19T09:19:01.456Z,20.60
2023-05-19T09:21:32.381Z,20.70
2023-05-19T09:24:05.586Z,20.70
2023-05-19T09:26:43.013Z,20.70
2023-05-19T09:29:14.167Z,20.80
2023-05-19T09:31:51.805Z,20.80
2023-05-19T09:34:19.455Z,20.80
2023-05-19T09:36:49.680Z,20.80
2023-05-19T09:39:17.817Z,20.80
2023-05-19T09:41:45.508Z,20.90
2023-05-19T09:44:29.843Z,20.90
2023-05-19T09:46:58.363Z,20.90
2023-05-19T09:49:29.694Z,21.00
2023-05-19T09:52:02.295Z,20.90
2023-05-19T09:54:32.609Z,21.00
2023-05-19T09:57:05.194Z,20.90
2023-05-19T09:59:33.990Z,20.90
2023-05-19T10:02:02.317Z,20.80
2023-05-19T10:04:31.141Z,20.80
2023-05-19T10:07:05.699Z,20.80
2023-05-19T10:09:34.075Z,20.80
2023-05-19T10:12:02.390Z,20.80
2023-05-19T10:14:30.212Z,20.80
2023-05-19T10:16:59.502Z,20.70
2023-05-19T10:19:28.352Z,20.70
2023-05-19T10:21:56.241Z,20.60
2023-05-19T10:24:23.342Z,20.60
2023-05-19T10:26:56.705Z,20.50
2023-05-19T10:29:28.716Z,20.50
2023-05-19T10:31:59.468Z,20.50
2023-05-19T10:34:57.874Z,20.40
2023-05-19T10:37:43.027Z,20.40
2023-05-19T10:40:17.068Z,20.30
2023-05-19T10:43:14.638Z,20.20
2023-05-19T10:45:49.195Z,20.20
2023-05-19T10:48:17.078Z,20.20
2023-05-19T10:50:48.219Z,20.20
2023-05-19T10:53:22.077Z,20.20
2023-05-19T10:55:56.180Z,20.10
2023-05-19T10:58:45.186Z,20.10
2023-05-19T11:01:19.765Z,20.10
2023-05-19T11:03:54.490Z,20.10
2023-05-19T11:06:28.444Z,20.10
2023-05-19T11:09:15.888Z,20.10
2023-05-19T11:11:54.964Z,20.10
2023-05-19T11:14:27.481Z,20.20
2023-05-19T11:16:57.768Z,20.20
2023-05-19T11:19:30.469Z,20.30
2023-05-19T11:22:07.929Z,20.40
2023-05-19T11:24:37.441Z,20.40
2023-05-19T11:27:40.037Z,20.40
2023-05-19T11:30:08.197Z,20.40
2023-05-19T11:32:39.503Z,20.40
2023-05-19T11:35:07.837Z,20.40
2023-05-19T11:37:35.919Z,20.40
2023-05-19T11:40:07.565Z,20.40
2023-05-19T11:42:36.194Z,20.40
2023-05-19T11:45:04.397Z,20.30
2023-05-19T11:47:42.101Z,20.30
2023-05-19T11:50:14.574Z,20.20
2023-05-19T11:52:45.196Z,20.20
2023-05-19T11:55:16.599Z,20.20
2023-05-19T12:00:37.215Z,20.20
2023-05-19T12:03:04.742Z,20.20
2023-05-19T12:05:34.868Z,20.20
2023-05-19T12:08:03.410Z,20.20
2023-05-19T12:10:31.475Z,20.30
2023-05-19T12:12:59.843Z,20.30
2023-05-19T12:15:26.906Z,20.30
2023-05-19T12:17:58.911Z,20.30
2023-05-19T12:20:27.324Z,20.30
2023-05-19T12:22:58.023Z,20.40
2023-05-19T12:25:25.361Z,20.40
2023-05-19T12:27:57.502Z,20.50
2023-05-19T12:30:27.930Z,20.50
2023-05-19T12:32:58.415Z,20.60
2023-05-19T12:35:29.941Z,20.60
2023-05-19T12:37:57.727Z,20.60
2023-05-19T12:40:25.859Z,20.50
2023-05-19T12:42:58.825Z,20.50
2023-05-19T12:45:28.137Z,20.40
2023-05-19T12:47:56.185Z,20.30
2023-05-19T12:50:31.477Z,20.30
2023-05-19T12:52:59.943Z,20.10
2023-05-19T12:55:27.345Z,20.00
2023-05-19T12:57:57.249Z,19.80
2023-05-19T13:00:27.754Z,19.70
2023-05-19T13:03:10.004Z,19.70
2023-05-19T13:05:43.664Z,19.60
2023-05-19T13:08:12.750Z,19.60
2023-05-19T13:10:40.847Z,19.60
2023-05-19T13:13:08.897Z,19.50
2023-05-19T13:15:40.749Z,19.60
2023-05-19T13:18:09.435Z,19.60
2023-05-19T13:20:37.900Z,19.50
2023-05-19T13:23:05.802Z,19.50
2023-05-19T13:25:36.560Z,19.50
2023-05-19T13:28:05.797Z,19.50
2023-05-19T13:30:34.386Z,19.50
2023-05-19T13:33:02.024Z,19.50
2023-05-19T13:35:29.177Z,19.50
2023-05-19T13:37:56.238Z,19.40
2023-05-19T13:40:24.208Z,19.30
2023-05-19T13:42:51.326Z,19.30
2023-05-19T13:45:18.439Z,19.20
2023-05-19T13:47:45.526Z,19.20
2023-05-19T13:50:12.743Z,19.10
2023-05-19T13:52:39.857Z,19.10
2023-05-19T13:55:07.681Z,19.00
2023-05-19T13:57:35.366Z,19.10
2023-05-19T14:00:04.130Z,19.10
2023-05-19T14:02:40.757Z,19.10
2023-05-19T14:05:08.628Z,19.10
2023-05-19T14:07:36.008Z,19.10
2023-05-19T14:10:05.574Z,19.10
2023-05-19T14:12:45.097Z,19.00
2023-05-19T14:15:20.615Z,19.10
2023-05-19T14:17:49.063Z,19.10
2023-05-19T14:20:16.330Z,19.00
2023-05-19T14:22:43.310Z,19.00
2023-05-19T14:25:10.651Z,19.00
2023-05-19T14:27:39.918Z,19.00
2023-05-19T14:30:08.181Z,19.00
2023-05-19T14:32:36.017Z,19.00
2023-05-19T14:35:03.359Z,19.10
2023-05-19T14:37:31.918Z,19.10
2023-05-19T14:39:59.386Z,19.10
2023-05-19T14:42:26.436Z,19.10
2023-05-19T14:44:53.661Z,19.10
2023-05-19T14:47:20.653Z,19.00
2023-05-19T14:49:47.727Z,19.00
2023-05-19T14:52:14.761Z,19.00
2023-05-19T14:54:41.832Z,18.90
2023-05-19T14:57:09.002Z,18.90
2023-05-19T14:59:39.184Z,18.90
2023-05-19T15:02:06.336Z,18.90
2023-05-19T15:04:33.330Z,18.80
2023-05-19T15:09:30.204Z,18.70
2023-05-19T15:11:57.315Z,18.70
2023-05-19T15:14:24.366Z,18.70
2023-05-19T15:16:51.472Z,18.70
2023-05-19T15:19:18.688Z,18.70
2023-05-19T15:21:45.777Z,18.70
2023-05-19T15:24:12.814Z,18.70
2023-05-19T15:26:39.808Z,18.70
2023-05-19T15:29:06.793Z,18.70
2023-05-19T15:31:35.755Z,18.70
2023-05-19T15:34:04.434Z,18.70
2023-05-19T15:36:31.536Z,18.70
2023-05-19T15:38:58.649Z,18.70
2023-05-19T15:41:25.925Z,18.70
2023-05-19T15:43:53.659Z,18.70
2023-05-19T15:46:20.784Z,18.70
2023-05-19T15:48:47.850Z,18.70
2023-05-19T15:51:14.946Z,18.70
2023-05-19T15:53:42.025Z,18.60
2023-05-19T15:56:09.047Z,18.60
2023-05-19T15:58:36.016Z,18.60
2023-05-19T16:01:03.383Z,18.50
2023-05-19T16:03:30.767Z,18.50
2023-05-19T16:05:58.089Z,18.50
2023-05-19T16:08:25.734Z,18.50
2023-05-19T16:10:53.736Z,18.50
2023-05-19T16:13:20.966Z,18.50
2023-05-19T16:15:48.438Z,18.50
2023-05-19T16:18:18.638Z,18.50
2023-05-19T16:20:45.661Z,18.50
2023-05-19T16:23:12.609Z,18.50
2023-05-19T16:25:39.744Z,18.50
2023-05-19T16:28:06.755Z,18.50
2023-05-19T16:30:34.020Z,18.50
2023-05-19T16:33:01.622Z,18.50
2023-05-19T16:35:29.548Z,18.50
2023-05-19T16:37:56.734Z,18.40
2023-05-19T16:40:23.896Z,18.40
2023-05-19T16:42:53.575Z,18.40
2023-05-19T16:45:20.869Z,18.40
2023-05-19T16:47:48.074Z,18.40
2023-05-19T16:50:15.297Z,18.40
2023-05-19T16:52:42.456Z,18.40
2023-05-19T16:55:09.773Z,18.40
2023-05-19T16:57:36.817Z,18.30
2023-05-19T17:00:04.129Z,18.30
2023-05-19T17:02:31.909Z,18.30
2023-05-19T17:04:59.079Z,18.30
2023-05-19T17:07:27.877Z,18.30
2023-05-19T17:09:56.072Z,18.30
2023-05-19T17:12:23.294Z,18.30
2023-05-19T17:14:52.058Z,18.30
2023-05-19T17:17:19.161Z,18.30
2023-05-19T17:19:46.802Z,18.20
2023-05-19T17:22:13.993Z,18.20
2023-05-19T17:24:41.361Z,18.20
2023-05-19T17:27:08.573Z,18.20
2023-05-19T17:29:36.864Z,18.20
2023-05-19T17:32:04.498Z,18.20
2023-05-19T17:34:31.492Z,18.10
2023-05-19T17:36:58.451Z,18.20
2023-05-19T17:39:25.577Z,18.20
2023-05-19T17:41:52.674Z,18.20
2023-05-19T17:44:19.758Z,18.10
2023-05-19T17:46:46.781Z,18.10
2023-05-19T17:49:14.304Z,18.10
2023-05-19T17:51:41.699Z,18.10
2023-05-19T17:54:08.965Z,18.10
2023-05-19T17:56:40.819Z,18.10
2023-05-19T17:59:08.290Z,18.10
2023-05-19T18:01:35.708Z,18.10
2023-05-19T18:04:03.888Z,18.10
2023-05-19T18:06:32.262Z,18.10
2023-05-19T18:09:01.239Z,18.10
2023-05-19T18:11:28.656Z,18.00
2023-05-19T18:13:56.848Z,18.00
2023-05-19T18:16:23.971Z,18.00
2023-05-19T18:18:51.206Z,18.00
2023-05-19T18:21:18.529Z,18.00
2023-05-19T18:23:46.387Z,18.00
2023-05-19T18:26:13.579Z,18.00
2023-05-19T18:28:41.505Z,17.90
2023-05-19T18:31:17.416Z,17.90
2023-05-19T18:33:45.752Z,17.90
2023-05-19T18:36:15.372Z,17.90
2023-05-19T18:38:42.456Z,17.90
2023-05-19T18:41:09.533Z,17.90
2023-05-19T18:43:36.511Z,17.90
2023-05-19T18:46:03.470Z,17.90
2023-05-19T18:48:31.317Z,17.90
2023-05-19T18:50:58.253Z,17.90
2023-05-19T18:53:25.665Z,17.90
2023-05-19T18:55:52.573Z,17.90
2023-05-19T18:58:19.581Z,17.80
2023-05-19T19:00:47.264Z,17.80
2023-05-19T19:03:14.993Z,17.80
2023-05-19T19:05:43.214Z,17.80
2023-05-19T19:08:10.158Z,17.80
2023-05-19T19:10:40.662Z,17.80
2023-05-19T19:13:07.847Z,17.80
2023-05-19T19:15:34.884Z,17.80
2023-05-19T19:18:02.213Z,17.70
2023-05-19T19:20:29.379Z,17.70
2023-05-19T19:22:56.905Z,17.70
2023-05-19T19:25:24.006Z,17.70
2023-05-19T19:27:51.244Z,17.70
2023-05-19T19:30:18.422Z,17.70
2023-05-19T19:32:45.579Z,17.70
2023-05-19T19:35:12.689Z,17.70
2023-05-19T19:37:39.643Z,17.70
2023-05-19T19:40:07.182Z,17.70
2023-05-19T19:42:34.495Z,17.70
2023-05-19T19:45:01.692Z,17.60
2023-05-19T19:47:29.184Z,17.60
2023-05-19T19:49:56.443Z,17.60
2023-05-19T19:52:23.649Z,17.60
2023-05-19T19:54:51.173Z,17.60
2023-05-19T19:57:18.443Z,17.60
2023-05-19T19:59:45.664Z,17.60
2023-05-19T20:02:12.730Z,17.60
2023-05-19T20:04:39.905Z,17.60
2023-05-19T20:07:06.975Z,17.60
2023-05-19T20:09:34.035Z,17.50
2023-05-19T20:12:01.196Z,17.50
2023-05-19T20:14:28.244Z,17.40
2023-05-19T20:16:55.233Z,17.30
2023-05-19T20:19:27.888Z,17.30
2023-05-19T20:21:55.015Z,17.30
2023-05-19T20:24:22.060Z,17.20
2023-05-19T20:26:49.128Z,17.20
2023-05-19T20:29:16.800Z,17.20
2023-05-19T20:31:45.411Z,17.10
2023-05-19T20:34:12.481Z,17.10
2023-05-19T20:36:39.459Z,17.10
2023-05-19T20:39:07.061Z,17.10
2023-05-19T20:41:34.033Z,17.20
2023-05-19T20:44:01.196Z,17.20
2023-05-19T20:46:28.463Z,17.20
2023-05-19T20:48:55.649Z,17.20
2023-05-19T20:51:25.116Z,17.20
2023-05-19T20:53:52.209Z,17.20
2023-05-19T20:56:24.747Z,17.20
2023-05-19T20:58:51.700Z,17.20
2023-05-19T21:01:18.733Z,17.20
2023-05-19T21:03:45.776Z,17.20
2023-05-19T21:06:12.851Z,17.20
2023-05-19T21:08:39.760Z,17.20
2023-05-19T21:11:06.785Z,17.20
2023-05-19T21:13:33.951Z,17.20
2023-05-19T21:16:00.982Z,17.20
2023-05-19T21:18:28.715Z,17.20
2023-05-19T21:20:55.658Z,17.20
2023-05-19T21:23:22.707Z,17.30
2023-05-19T21:25:50.614Z,17.20
2023-05-19T21:28:17.603Z,17.20
2023-05-19T21:30:49.197Z,17.20
2023-05-19T21:33:16.636Z,17.20
2023-05-19T21:35:45.547Z,17.20
2023-05-19T21:38:23.304Z,17.20
2023-05-19T21:40:51.824Z,17.20
2023-05-19T21:43:22.498Z,17.20
2023-05-19T21:45:49.535Z,17.20
2023-05-19T21:48:16.683Z,17.10
2023-05-19T21:50:43.762Z,17.10
2023-05-19T21:53:10.817Z,17.10
2023-05-19T21:55:37.873Z,17.10
2023-05-19T21:58:04.930Z,17.10
2023-05-19T22:00:32.103Z,17.10
2023-05-19T22:02:59.419Z,17.10
2023-05-19T22:05:26.579Z,17.10
2023-05-19T22:07:53.680Z,17.00
2023-05-19T22:10:20.841Z,17.00
2023-05-19T22:12:47.807Z,17.00
2023-05-19T22:15:15.920Z,17.00
2023-05-19T22:17:43.063Z,17.00
2023-05-19T22:20:10.568Z,17.00
2023-05-19T22:22:37.513Z,17.00
2023-05-19T22:25:05.001Z,17.00
2023-05-19T22:27:32.086Z,17.00
2023-05-19T22:29:59.723Z,17.10
2023-05-19T22:32:26.827Z,17.10
2023-05-19T22:34:53.984Z,17.10
2023-05-19T22:37:22.895Z,17.10
2023-05-19T22:39:49.869Z,17.10
2023-05-19T22:42:16.811Z,17.10
2023-05-19T22:44:43.955Z,17.10
2023-05-19T22:47:13.622Z,17.10
2023-05-19T22:49:41.546Z,17.10
2023-05-19T22:52:10.452Z,17.10
2023-05-19T22:54:38.061Z,17.00
2023-05-19T22:57:05.495Z,17.00
2023-05-19T22:59:32.595Z,17.00
2023-05-19T23:01:59.530Z,17.00
2023-05-19T23:04:26.538Z,17.00
2023-05-19T23:06:53.566Z,17.00
2023-05-19T23:09:21.832Z,17.00
2023-05-19T23:11:48.888Z,16.90
2023-05-19T23:14:15.956Z,16.90
2023-05-19T23:16:43.002Z,16.90
2023-05-19T23:19:10.101Z,16.90
2023-05-19T23:21:37.068Z,16.90
2023-05-19T23:24:04.878Z,16.80
2023-05-19T23:26:31.855Z,16.80
2023-05-19T23:28:58.838Z,16.80
2023-05-19T23:31:25.986Z,16.70
2023-05-19T23:33:54.174Z,16.70
2023-05-19T23:36:21.223Z,16.60
2023-05-19T23:38:48.277Z,16.60
2023-05-19T23:41:15.229Z,16.60
2023-05-19T23:43:42.163Z,16.60
2023-05-19T23:46:09.260Z,16.60
2023-05-19T23:48:36.678Z,16.60
2023-05-19T23:51:03.759Z,16.50
2023-05-19T23:53:30.782Z,16.50
2023-05-19T23:55:58.758Z,16.50
2023-05-19T23:58:26.025Z,16.50
